Time;durP1;ratioP1;P1;durP2;ratioP2;P2;SDS_P1;SDS_P2;PMS_P1;PMS_P2;Temp;Humidity;BMP_temperature;BMP_pressure;BME280_temperature;BME280_humidity;BME280_pressure;Samples;Min_cycle;Max_cycle;Signal;HPM_P1;HPM_P2
2023/05/11 00:02:17;;;;;;;36.28;26.23;;;15.40;99.90;;;;;;6262573;22;20007;-92
2023/05/11 00:04:42;;;;;;;34.03;25.02;;;15.40;99.90;;;;;;6262730;22;20003;-94
2023/05/11 00:07:08;;;;;;;37.03;26.13;;;15.50;99.90;;;;;;6261699;22;20056;-89
2023/05/11 00:09:34;;;;;;;38.63;26.98;;;15.50;99.90;;;;;;6261054;22;20003;-89
2023/05/11 00:12:01;;;;;;;36.20;25.60;;;15.40;99.90;;;;;;6286893;22;20036;-90
2023/05/11 00:14:27;;;;;;;37.20;27.08;;;15.40;99.90;;;;;;6266468;22;20463;-94
2023/05/11 00:16:53;;;;;;;40.22;27.45;;;15.40;99.90;;;;;;6315202;22;20003;-95
2023/05/11 00:19:19;;;;;;;35.90;26.52;;;15.40;99.90;;;;;;6288820;22;20003;-93
2023/05/11 00:21:44;;;;;;;35.40;26.73;;;15.40;99.90;;;;;;6263098;22;20007;-92
2023/05/11 00:24:10;;;;;;;36.25;27.38;;;15.40;99.90;;;;;;6262955;22;20010;-93
2023/05/11 00:26:36;;;;;;;35.47;28.27;;;15.40;99.90;;;;;;6288806;22;20092;-93
2023/05/11 00:29:02;;;;;;;39.67;27.80;;;15.40;99.90;;;;;;6290695;22;20015;-87
2023/05/11 00:31:27;;;;;;;35.17;27.00;;;15.40;99.90;;;;;;6262843;22;20056;-90
2023/05/11 00:33:53;;;;;;;35.78;26.90;;;15.40;99.90;;;;;;6263813;22;20007;-93
2023/05/11 00:36:19;;;;;;;38.35;28.42;;;15.40;99.90;;;;;;6263921;22;20010;-92
2023/05/11 00:38:45;;;;;;;39.47;27.30;;;15.40;99.90;;;;;;6289138;22;20102;-91
2023/05/11 00:41:11;;;;;;;37.45;27.15;;;15.40;99.90;;;;;;6263636;22;20038;-92
2023/05/11 00:43:37;;;;;;;37.30;27.35;;;15.30;99.90;;;;;;6289173;22;20006;-91
2023/05/11 00:46:02;;;;;;;35.47;25.08;;;15.30;99.90;;;;;;6289390;22;20042;-91
2023/05/11 00:48:28;;;;;;;35.72;26.15;;;15.40;99.90;;;;;;6289034;22;20009;-92
2023/05/11 00:50:55;;;;;;;38.30;26.80;;;15.40;99.90;;;;;;6315041;22;20010;-91
2023/05/11 00:53:20;;;;;;;35.03;25.10;;;15.30;99.90;;;;;;6314572;22;20003;-91
2023/05/11 00:55:46;;;;;;;37.05;25.55;;;15.30;99.90;;;;;;6289278;22;20045;-91
2023/05/11 00:58:14;;;;;;;35.03;25.80;;;15.30;99.90;;;;;;6263270;22;20095;-92
2023/05/11 01:00:40;;;;;;;36.88;25.88;;;15.30;99.90;;;;;;6314386;22;20010;-91
2023/05/11 01:03:06;;;;;;;40.03;26.35;;;15.30;99.90;;;;;;6266262;22;20093;-89
2023/05/11 01:09:11;;;;;;;36.17;26.17;;;15.30;99.90;;;;;;6342791;22;20002;-89
2023/05/11 01:11:55;;;;;;;38.42;26.92;;;15.20;99.90;;;;;;6313881;22;20022;-91
2023/05/11 01:14:40;;;;;;;39.03;27.42;;;15.20;99.90;;;;;;6341347;22;20052;-89
2023/05/11 01:20:29;;;;;;;40.42;28.98;;;15.20;99.90;;;;;;6341904;22;20039;-90
2023/05/11 01:23:06;;;;;;;44.53;29.83;;;15.20;99.90;;;;;;6313820;22;19995;-90
2023/05/11 01:25:55;;;;;;;41.65;29.15;;;15.10;99.90;;;;;;6313768;22;20087;-90
2023/05/11 01:28:49;;;;;;;46.38;28.90;;;15.10;99.90;;;;;;6314075;22;20313;-91
2023/05/11 01:31:16;;;;;;;42.83;29.60;;;15.10;99.90;;;;;;6314300;22;20466;-92
2023/05/11 01:33:52;;;;;;;42.88;29.70;;;15.10;99.90;;;;;;6313809;22;20127;-92
2023/05/11 01:36:21;;;;;;;48.13;29.85;;;15.10;99.90;;;;;;6313899;22;20003;-89
2023/05/11 01:38:49;;;;;;;47.15;30.58;;;15.20;99.90;;;;;;6312810;22;20356;-89
2023/05/11 01:41:18;;;;;;;43.28;30.20;;;15.10;99.90;;;;;;6313615;22;20010;-90
2023/05/11 01:43:48;;;;;;;40.78;29.08;;;15.10;99.90;;;;;;6313839;22;20006;-89
2023/05/11 01:46:16;;;;;;;50.42;31.35;;;15.10;99.90;;;;;;6313608;22;20010;-90
2023/05/11 01:48:45;;;;;;;50.03;30.08;;;15.20;99.90;;;;;;6288262;22;20125;-90
2023/05/11 01:51:12;;;;;;;44.83;29.50;;;15.20;99.90;;;;;;6313910;22;20010;-90
2023/05/11 01:53:39;;;;;;;47.55;30.52;;;15.20;99.90;;;;;;6288408;22;20007;-92
2023/05/11 01:56:06;;;;;;;43.50;29.13;;;15.20;99.90;;;;;;6313941;22;20086;-91
2023/05/11 01:58:35;;;;;;;40.10;27.70;;;15.20;99.90;;;;;;6314395;22;20039;-92
2023/05/11 02:01:02;;;;;;;45.88;28.55;;;15.20;99.90;;;;;;6314186;22;20002;-93
2023/05/11 02:03:31;;;;;;;42.30;28.48;;;15.20;99.90;;;;;;6314523;22;20016;-93
2023/05/11 02:05:59;;;;;;;43.22;27.80;;;15.20;99.90;;;;;;6313941;22;20003;-94
2023/05/11 02:08:29;;;;;;;44.10;27.40;;;15.10;99.90;;;;;;6289208;22;20007;-91
2023/05/11 02:10:56;;;;;;;41.72;27.15;;;15.10;99.90;;;;;;6313589;22;20429;-91
2023/05/11 02:13:23;;;;;;;44.40;27.63;;;15.20;99.90;;;;;;6314324;22;20333;-91
2023/05/11 02:15:52;;;;;;;40.28;26.42;;;15.20;99.90;;;;;;6262327;22;20364;-91
2023/05/11 02:18:19;;;;;;;44.10;26.85;;;15.20;99.90;;;;;;6341057;22;19995;-90
2023/05/11 02:20:46;;;;;;;41.08;26.08;;;15.10;99.90;;;;;;6341052;22;19994;-89
2023/05/11 02:23:13;;;;;;;42.70;24.85;;;15.20;99.90;;;;;;6313617;22;20013;-90
2023/05/11 02:25:39;;;;;;;42.40;25.58;;;15.10;99.90;;;;;;6287981;22;20007;-92
2023/05/11 02:28:06;;;;;;;44.58;26.15;;;15.10;99.90;;;;;;6302006;22;19983;-89
2023/05/11 02:30:38;;;;;;;45.58;25.25;;;15.10;99.90;;;;;;6341826;22;19997;-90
2023/05/11 02:33:07;;;;;;;39.42;24.73;;;15.10;99.90;;;;;;6342020;22;20017;-90
2023/05/11 02:35:41;;;;;;;45.42;25.27;;;15.10;99.90;;;;;;6341805;22;20074;-89
2023/05/11 02:38:09;;;;;;;46.20;24.77;;;15.10;99.90;;;;;;6341886;22;19983;-90
2023/05/11 02:40:41;;;;;;;48.10;24.35;;;15.10;99.90;;;;;;6290162;22;20003;-91
2023/05/11 02:43:12;;;;;;;48.17;26.77;;;15.10;99.90;;;;;;6330291;22;20014;-91
2023/05/11 02:45:43;;;;;;;48.00;25.27;;;15.10;99.90;;;;;;6313429;22;20303;-93
2023/05/11 02:48:16;;;;;;;44.38;25.38;;;15.00;99.90;;;;;;6287730;22;20372;-91
2023/05/11 02:50:42;;;;;;;45.28;25.42;;;15.00;99.90;;;;;;6313247;22;20003;-93
2023/05/11 02:53:14;;;;;;;47.53;26.48;;;15.00;99.90;;;;;;6288616;22;20064;-92
2023/05/11 02:55:41;;;;;;;48.08;25.27;;;15.00;99.90;;;;;;6314576;22;20007;-92
2023/05/11 02:58:07;;;;;;;45.28;24.65;;;15.00;99.90;;;;;;6289494;22;20003;-94
2023/05/11 03:00:33;;;;;;;47.63;25.45;;;15.00;99.90;;;;;;6316461;22;20022;-94
2023/05/11 03:02:59;;;;;;;46.60;25.77;;;15.00;99.90;;;;;;6288724;22;20084;-94
2023/05/11 03:05:25;;;;;;;47.40;24.63;;;15.00;99.90;;;;;;6288254;22;20017;-96
2023/05/11 03:07:53;;;;;;;41.05;19.92;;;15.00;99.90;;;;;;6288105;22;20060;-95
2023/05/11 03:10:20;;;;;;;55.90;25.42;;;15.00;99.90;;;;;;6314691;22;20002;-95
2023/05/11 03:12:46;;;;;;;60.50;28.83;;;15.00;99.90;;;;;;6289664;22;20014;-94
2023/05/11 03:15:11;;;;;;;57.38;27.00;;;15.00;99.90;;;;;;6288261;22;20014;-95
2023/05/11 03:17:39;;;;;;;59.03;26.95;;;15.00;99.90;;;;;;6262221;22;20426;-91
2023/05/11 03:20:07;;;;;;;58.60;26.60;;;15.00;99.90;;;;;;6287682;22;20086;-90
2023/05/11 03:22:34;;;;;;;59.25;25.67;;;15.00;99.90;;;;;;6288693;22;20329;-93
2023/05/11 03:25:02;;;;;;;67.28;27.55;;;15.00;99.90;;;;;;6287669;22;20421;-91
2023/05/11 03:27:29;;;;;;;64.10;26.30;;;15.00;99.90;;;;;;6313646;22;20031;-94
2023/05/11 03:29:56;;;;;;;62.92;25.85;;;15.00;99.90;;;;;;6288279;22;20310;-94
2023/05/11 03:32:22;;;;;;;54.22;24.35;;;15.00;99.90;;;;;;6291291;22;20009;-92
2023/05/11 03:34:48;;;;;;;55.80;25.10;;;15.00;99.90;;;;;;6289850;22;20006;-91
2023/05/11 03:37:16;;;;;;;51.08;23.75;;;14.90;99.90;;;;;;6315147;22;20005;-91
2023/05/11 03:39:45;;;;;;;50.15;23.80;;;15.00;99.90;;;;;;6327875;22;20019;-91
2023/05/11 03:42:13;;;;;;;54.88;24.33;;;14.90;99.90;;;;;;6304642;22;20003;-91
2023/05/11 03:44:42;;;;;;;56.50;25.90;;;14.90;99.90;;;;;;6304623;22;19991;-91
2023/05/11 03:47:09;;;;;;;57.60;26.83;;;14.90;99.90;;;;;;6279481;22;20012;-91
2023/05/11 03:49:36;;;;;;;68.05;26.55;;;14.90;99.90;;;;;;6269799;22;20015;-94
2023/05/11 03:52:04;;;;;;;63.95;24.33;;;14.80;99.90;;;;;;6277254;22;20004;-94
2023/05/11 03:54:30;;;;;;;59.50;26.05;;;14.80;99.90;;;;;;6251367;22;20423;-93
2023/05/11 03:56:55;;;;;;;58.67;24.60;;;14.80;99.90;;;;;;6251247;22;20090;-93
2023/05/11 03:59:21;;;;;;;59.58;25.00;;;14.70;99.90;;;;;;6251825;22;20366;-92
2023/05/11 04:01:51;;;;;;;49.15;22.25;;;14.70;99.90;;;;;;6225839;22;20414;-92
2023/05/11 04:04:17;;;;;;;56.13;23.05;;;14.70;99.90;;;;;;6276939;22;20026;-92
2023/05/11 04:06:43;;;;;;;56.35;24.45;;;14.70;99.90;;;;;;6276851;22;20091;-92
2023/05/11 04:09:09;;;;;;;62.35;24.30;;;14.70;99.90;;;;;;6251121;22;20046;-91
2023/05/11 04:11:38;;;;;;;67.78;26.80;;;14.70;99.90;;;;;;6251369;22;20004;-91
2023/05/11 04:14:04;;;;;;;65.00;26.70;;;14.70;99.90;;;;;;6277482;22;20330;-91
2023/05/11 04:16:29;;;;;;;63.30;25.52;;;14.70;99.90;;;;;;6251762;22;20095;-92
2023/05/11 04:18:55;;;;;;;57.78;25.20;;;14.70;99.90;;;;;;6277655;22;20003;-91
2023/05/11 04:21:21;;;;;;;62.67;25.40;;;14.70;99.90;;;;;;6226168;22;20050;-91
2023/05/11 04:23:46;;;;;;;0.10;0.10;;;14.70;99.90;;;;;;6251402;22;20004;-92
2023/05/11 04:26:12;;;;;;;1999.90;999.90;;;14.70;99.90;;;;;;6276590;22;20437;-92
2023/05/11 04:28:38;;;;;;;112.53;38.92;;;14.70;99.90;;;;;;6226357;22;20008;-91
2023/05/11 04:31:03;;;;;;;112.95;39.45;;;14.70;99.90;;;;;;6226192;22;20054;-92
2023/05/11 04:33:29;;;;;;;91.65;36.03;;;14.70;99.90;;;;;;6276807;22;20399;-91
2023/05/11 04:35:57;;;;;;;91.97;35.13;;;14.70;99.90;;;;;;6225923;22;20094;-91
2023/05/11 04:38:23;;;;;;;97.32;36.10;;;14.70;99.90;;;;;;6227031;22;20012;-93
2023/05/11 04:40:49;;;;;;;91.07;32.78;;;14.70;99.90;;;;;;6226618;22;20315;-93
2023/05/11 04:43:15;;;;;;;79.95;32.38;;;14.70;99.90;;;;;;6252384;22;20335;-90
2023/05/11 04:45:41;;;;;;;71.90;30.30;;;14.70;99.90;;;;;;6277505;22;20004;-88
2023/05/11 04:48:06;;;;;;;68.05;29.88;;;14.70;99.90;;;;;;6226626;22;20061;-91
2023/05/11 04:50:32;;;;;;;71.97;29.65;;;14.70;99.90;;;;;;6252611;22;20066;-90
2023/05/11 04:52:58;;;;;;;74.85;28.67;;;14.70;99.90;;;;;;6251848;22;20019;-91
2023/05/11 04:55:23;;;;;;;77.10;30.83;;;14.70;99.90;;;;;;6225626;22;20011;-90
2023/05/11 04:57:49;;;;;;;68.13;29.25;;;14.70;99.90;;;;;;6251126;22;20000;-91
2023/05/11 05:00:15;;;;;;;75.03;27.90;;;14.70;99.90;;;;;;6251096;22;20312;-91
2023/05/11 05:02:41;;;;;;;66.35;27.98;;;14.60;99.90;;;;;;6226931;22;20011;-92
2023/05/11 05:05:07;;;;;;;74.65;29.95;;;14.60;99.90;;;;;;6277001;22;20011;-93
2023/05/11 05:07:32;;;;;;;67.82;27.15;;;14.70;99.90;;;;;;6252042;22;20011;-92
2023/05/11 05:09:58;;;;;;;66.90;27.20;;;14.70;99.90;;;;;;6235182;22;20003;-91
2023/05/11 05:12:24;;;;;;;75.57;28.08;;;14.70;99.90;;;;;;6278613;22;20032;-92
2023/05/11 05:14:50;;;;;;;73.63;27.48;;;14.70;99.90;;;;;;6230066;22;20000;-90
2023/05/11 05:17:15;;;;;;;67.47;26.98;;;14.60;99.90;;;;;;6227481;22;20012;-91
2023/05/11 05:19:41;;;;;;;69.35;27.08;;;14.60;99.90;;;;;;6252261;22;20067;-90
2023/05/11 05:22:06;;;;;;;71.78;27.98;;;14.70;99.90;;;;;;6252369;22;20004;-92
2023/05/11 05:24:32;;;;;;;66.40;26.27;;;14.70;99.90;;;;;;6253107;22;20007;-92
2023/05/11 05:26:58;;;;;;;72.43;30.98;;;14.60;99.90;;;;;;6278301;22;20386;-92
2023/05/11 05:29:24;;;;;;;70.18;25.88;;;14.60;99.90;;;;;;6228356;22;20008;-92
2023/05/11 05:31:49;;;;;;;71.03;29.25;;;14.60;99.90;;;;;;6229499;22;20008;-94
2023/05/11 05:34:15;;;;;;;65.72;25.92;;;14.60;99.90;;;;;;6228786;22;20007;-95
2023/05/11 05:36:41;;;;;;;74.18;27.92;;;14.60;99.90;;;;;;6228573;22;20012;-95
2023/05/11 05:39:11;;;;;;;76.63;29.88;;;14.60;99.90;;;;;;6254385;22;20004;-95
2023/05/11 05:41:37;;;;;;;70.13;27.05;;;14.60;99.90;;;;;;6266310;22;20017;-94
2023/05/11 05:44:02;;;;;;;69.30;27.05;;;14.70;99.90;;;;;;6290575;22;20137;-95
2023/05/11 05:46:28;;;;;;;80.25;28.98;;;14.70;99.90;;;;;;6291421;22;20028;-90
2023/05/11 05:48:54;;;;;;;74.30;28.92;;;14.60;99.90;;;;;;6290842;22;20335;-89
2023/05/11 05:51:21;;;;;;;72.50;28.42;;;14.70;99.90;;;;;;6294684;22;20007;-89
2023/05/11 05:53:47;;;;;;;83.07;29.67;;;14.70;99.90;;;;;;6316739;22;19998;-90
2023/05/11 05:56:12;;;;;;;92.65;30.48;;;14.70;99.90;;;;;;6315208;22;20007;-90
2023/05/11 05:58:38;;;;;;;80.43;30.75;;;14.70;99.90;;;;;;6289297;22;20006;-89
2023/05/11 06:01:04;;;;;;;77.45;29.42;;;14.70;99.90;;;;;;6288937;22;20025;-89
2023/05/11 06:03:30;;;;;;;67.93;27.60;;;14.70;99.90;;;;;;6289999;22;20084;-90
2023/05/11 06:05:56;;;;;;;72.65;29.02;;;14.80;99.90;;;;;;6315704;22;20003;-89
2023/05/11 06:08:21;;;;;;;76.60;29.13;;;14.80;99.90;;;;;;6288824;22;20014;-90
2023/05/11 06:10:47;;;;;;;77.00;28.60;;;14.80;99.90;;;;;;6288445;22;20011;-89
2023/05/11 06:13:13;;;;;;;80.65;29.00;;;14.80;99.90;;;;;;6263515;22;20025;-90
2023/05/11 06:15:38;;;;;;;78.38;30.88;;;14.90;99.90;;;;;;6263186;22;20013;-90
2023/05/11 06:18:04;;;;;;;75.63;31.45;;;14.80;99.90;;;;;;6314591;22;20002;-90
2023/05/11 06:20:31;;;;;;;65.22;29.85;;;14.90;99.90;;;;;;6264740;22;20002;-93
2023/05/11 06:22:56;;;;;;;75.45;29.58;;;14.90;99.90;;;;;;6289902;22;20036;-91
2023/05/11 06:25:22;;;;;;;78.13;31.20;;;14.90;99.90;;;;;;6264382;22;20371;-91
2023/05/11 06:27:48;;;;;;;75.07;32.03;;;15.00;99.90;;;;;;6289829;22;20319;-91
2023/05/11 06:30:14;;;;;;;71.88;33.83;;;15.00;99.90;;;;;;6264185;22;20425;-93
2023/05/11 06:32:39;;;;;;;71.95;29.85;;;15.00;99.90;;;;;;6289103;22;20007;-91
2023/05/11 06:35:05;;;;;;;67.68;29.23;;;14.90;99.90;;;;;;6264020;22;20011;-92
2023/05/11 06:37:31;;;;;;;62.00;27.35;;;14.90;99.90;;;;;;6302353;22;20002;-88
2023/05/11 06:40:00;;;;;;;61.13;29.33;;;14.90;99.90;;;;;;6265859;22;20015;-90
2023/05/11 06:42:26;;;;;;;62.38;27.27;;;15.00;99.90;;;;;;6329573;22;20006;-87
2023/05/11 06:44:51;;;;;;;59.13;26.42;;;15.00;99.90;;;;;;6301453;22;20442;-92
2023/05/11 06:47:17;;;;;;;61.50;28.60;;;15.00;99.90;;;;;;6295010;22;20006;-91
2023/05/11 06:49:43;;;;;;;66.68;30.95;;;15.00;99.90;;;;;;6302572;22;19998;-88
2023/05/11 06:52:09;;;;;;;72.80;31.17;;;15.10;99.90;;;;;;6334288;22;19999;-92
2023/05/11 06:54:35;;;;;;;65.45;29.25;;;15.10;99.90;;;;;;6315494;22;20291;-94
2023/05/11 06:57:02;;;;;;;74.65;32.30;;;15.10;99.90;;;;;;6288662;22;20148;-91
2023/05/11 06:59:29;;;;;;;61.42;28.83;;;15.10;99.90;;;;;;6289763;22;20072;-92
2023/05/11 07:01:55;;;;;;;68.82;30.98;;;15.10;99.90;;;;;;6315302;22;19995;-93
2023/05/11 07:04:20;;;;;;;67.70;32.20;;;15.20;99.90;;;;;;6290863;22;20007;-91
2023/05/11 07:06:46;;;;;;;68.45;34.75;;;15.20;99.90;;;;;;6263978;22;20014;-92
2023/05/11 07:09:12;;;;;;;81.63;36.85;;;15.20;99.90;;;;;;6263958;22;20029;-91
2023/05/11 07:11:38;;;;;;;77.78;37.28;;;15.20;99.90;;;;;;6288269;22;20010;-92
2023/05/11 07:14:04;;;;;;;69.50;34.00;;;15.20;99.90;;;;;;6263070;22;20011;-88
2023/05/11 07:16:30;;;;;;;70.05;34.20;;;15.20;99.90;;;;;;6262354;22;20010;-89
2023/05/11 07:18:56;;;;;;;88.70;39.33;;;15.20;99.90;;;;;;6289238;22;20094;-91
2023/05/11 07:21:21;;;;;;;83.57;38.15;;;15.10;99.90;;;;;;6263322;22;20111;-92
2023/05/11 07:23:47;;;;;;;74.05;34.22;;;15.10;99.90;;;;;;6288425;22;20048;-92
2023/05/11 07:26:34;;;;;;;83.18;36.25;;;15.10;99.90;;;;;;6313281;22;20018;-89
2023/05/11 07:28:59;;;;;;;88.07;40.10;;;15.10;99.90;;;;;;6288487;22;20422;-91
2023/05/11 07:31:25;;;;;;;87.32;39.92;;;15.10;99.90;;;;;;6263047;22;20013;-91
2023/05/11 07:33:52;;;;;;;70.78;35.08;;;15.10;99.90;;;;;;6288746;22;20117;-90
2023/05/11 07:36:17;;;;;;;75.43;37.38;;;15.10;99.90;;;;;;6263486;22;20003;-89
2023/05/11 07:38:43;;;;;;;78.43;39.95;;;15.10;99.90;;;;;;6297404;22;20009;-88
2023/05/11 07:41:09;;;;;;;80.75;42.53;;;15.10;99.90;;;;;;6261983;22;20031;-89
2023/05/11 07:43:35;;;;;;;83.15;42.72;;;15.20;99.90;;;;;;6288041;22;20064;-90
2023/05/11 07:46:00;;;;;;;89.38;47.83;;;15.10;99.90;;;;;;6262651;22;20007;-90
2023/05/11 07:48:26;;;;;;;86.57;45.42;;;15.10;99.90;;;;;;6262342;22;20034;-91
2023/05/11 07:50:52;;;;;;;88.93;44.67;;;15.20;99.90;;;;;;6313969;22;20007;-91
2023/05/11 07:53:17;;;;;;;84.05;45.70;;;15.20;99.90;;;;;;6288246;22;20003;-91
2023/05/11 07:55:43;;;;;;;72.88;42.75;;;15.20;99.90;;;;;;6287400;22;20088;-90
2023/05/11 07:58:08;;;;;;;76.25;43.40;;;15.10;99.90;;;;;;6262269;22;20115;-90
2023/05/11 08:00:34;;;;;;;84.93;47.17;;;15.20;99.90;;;;;;6287480;22;20028;-89
2023/05/11 08:03:00;;;;;;;63.78;39.65;;;15.20;99.90;;;;;;6262044;22;19998;-90
2023/05/11 08:05:26;;;;;;;77.15;44.95;;;15.20;99.90;;;;;;6288239;22;20093;-91
2023/05/11 08:07:52;;;;;;;71.05;44.80;;;15.30;99.90;;;;;;6313332;22;20063;-86
2023/05/11 08:10:18;;;;;;;69.20;42.05;;;15.30;99.90;;;;;;6261899;22;20393;-89
2023/05/11 08:12:43;;;;;;;68.32;44.33;;;15.30;99.90;;;;;;6313535;22;20037;-88
2023/05/11 08:15:10;;;;;;;60.00;40.90;;;15.30;99.90;;;;;;6288178;22;20014;-87
2023/05/11 08:17:36;;;;;;;65.03;44.00;;;15.30;99.90;;;;;;6287644;22;20002;-89
2023/05/11 08:20:03;;;;;;;70.05;46.30;;;15.30;99.90;;;;;;6264255;22;20010;-90
2023/05/11 08:22:29;;;;;;;67.75;48.00;;;15.30;99.90;;;;;;6294648;22;20442;-89
2023/05/11 08:24:55;;;;;;;74.22;53.95;;;15.40;99.90;;;;;;6291790;22;20002;-89
2023/05/11 08:27:21;;;;;;;64.13;48.92;;;15.40;99.90;;;;;;6289034;22;20003;-90
2023/05/11 08:29:47;;;;;;;60.33;50.78;;;15.40;99.90;;;;;;6289096;22;20007;-90
2023/05/11 08:32:12;;;;;;;63.63;54.88;;;15.40;99.90;;;;;;6314740;22;20035;-92
2023/05/11 08:34:38;;;;;;;117.50;106.88;;;15.40;99.90;;;;;;6262667;22;20014;-90
2023/05/11 08:37:04;;;;;;;207.50;193.75;;;15.50;99.90;;;;;;6313561;22;20022;-89
2023/05/11 08:39:32;;;;;;;1999.90;999.90;;;15.50;99.90;;;;;;6287470;22;20040;-90
2023/05/11 08:41:59;;;;;;;287.67;269.08;;;15.50;99.90;;;;;;6313469;22;20318;-91
2023/05/11 08:44:26;;;;;;;1999.90;999.90;;;15.60;99.90;;;;;;6313097;22;20414;-90
2023/05/11 08:46:53;;;;;;;459.80;430.65;;;15.70;99.90;;;;;;6287123;22;20017;-90
2023/05/11 08:49:19;;;;;;;422.30;395.95;;;15.70;99.90;;;;;;6340822;22;19979;-93
2023/05/11 08:51:45;;;;;;;1074.07;569.22;;;15.70;99.90;;;;;;6313823;22;19987;-93
2023/05/11 08:54:11;;;;;;;1999.90;999.90;;;15.70;99.90;;;;;;6314116;22;19979;-94
2023/05/11 08:56:40;;;;;;;48.72;31.75;;;15.80;99.90;;;;;;6338804;22;20025;-93
2023/05/11 08:59:07;;;;;;;52.25;32.67;;;15.80;99.90;;;;;;6311961;22;19991;-92
2023/05/11 09:01:35;;;;;;;59.97;37.33;;;15.80;99.90;;;;;;6311253;22;20005;-93
2023/05/11 09:04:01;;;;;;;64.35;38.88;;;15.90;99.90;;;;;;6336240;22;20024;-93
2023/05/11 09:06:28;;;;;;;63.20;38.10;;;15.90;99.90;;;;;;6301695;22;19999;-90
2023/05/11 09:08:54;;;;;;;64.18;39.45;;;16.00;99.90;;;;;;6314597;22;20022;-91
2023/05/11 09:11:21;;;;;;;56.95;39.15;;;16.00;99.90;;;;;;6314201;22;20025;-89
2023/05/11 09:13:47;;;;;;;55.13;37.83;;;16.00;99.90;;;;;;6314752;22;19995;-91
2023/05/11 09:16:13;;;;;;;53.63;37.53;;;16.00;99.90;;;;;;6314687;22;20011;-90
2023/05/11 09:18:53;;;;;;;48.13;35.10;;;16.00;99.90;;;;;;6263133;22;20311;-91
2023/05/11 09:21:19;;;;;;;54.25;38.25;;;16.00;99.90;;;;;;6288883;22;20010;-92
2023/05/11 09:23:49;;;;;;;49.05;34.50;;;16.00;99.90;;;;;;6308029;22;19987;-95
2023/05/11 09:26:15;;;;;;;54.43;39.33;;;16.00;99.90;;;;;;6316556;22;20002;-94
2023/05/11 09:28:49;;;;;;;44.67;33.00;;;16.10;99.90;;;;;;6342419;22;20011;-94
2023/05/11 09:31:36;;;;;;;43.78;32.00;;;16.10;99.90;;;;;;6341946;22;20029;-96
2023/05/11 09:34:14;;;;;;;45.55;33.92;;;16.20;99.90;;;;;;6340211;22;20002;-88
2023/05/11 09:36:45;;;;;;;35.17;28.02;;;16.20;99.90;;;;;;6330026;22;20007;-88
2023/05/11 09:39:15;;;;;;;35.97;29.27;;;16.10;99.90;;;;;;6328126;22;20093;-90
2023/05/11 09:41:41;;;;;;;33.20;24.93;;;16.10;99.90;;;;;;6288901;22;20003;-90
2023/05/11 09:44:12;;;;;;;34.45;27.80;;;16.10;99.90;;;;;;6314702;22;20002;-89
2023/05/11 09:46:39;;;;;;;;;;;16.10;99.90;;;;;;6315784;22;20007;-90
2023/05/11 09:49:05;;;;;;;36.75;28.77;;;16.10;99.90;;;;;;6315271;22;19898;-89
2023/05/11 09:51:34;;;;;;;34.70;27.98;;;16.10;99.90;;;;;;6316075;22;20042;-90
2023/05/11 09:54:13;;;;;;;35.83;27.70;;;16.10;99.90;;;;;;6291426;22;20002;-93
2023/05/11 09:56:55;;;;;;;36.33;28.77;;;16.00;99.90;;;;;;6316343;22;20003;-95
2023/05/11 09:59:40;;;;;;;36.72;28.40;;;16.00;99.90;;;;;;6290725;22;19999;-94
2023/05/11 10:02:20;;;;;;;29.00;25.67;;;16.00;99.90;;;;;;6316983;22;19994;-94
2023/05/11 10:04:47;;;;;;;31.70;25.55;;;16.00;99.90;;;;;;6316850;22;20055;-94
2023/05/11 10:07:33;;;;;;;30.25;24.10;;;16.00;99.90;;;;;;6265541;22;20315;-95
2023/05/11 10:10:04;;;;;;;31.98;25.70;;;16.00;99.90;;;;;;6316300;22;20007;-95
2023/05/11 10:12:36;;;;;;;;;;;16.00;99.90;;;;;;6320197;22;20017;-92
2023/05/11 10:15:06;;;;;;;34.80;24.73;;;16.00;99.90;;;;;;6300493;22;19903;-95
2023/05/11 10:17:32;;;;;;;43.30;30.05;;;16.10;99.90;;;;;;6321511;22;20029;-95
2023/05/11 10:19:59;;;;;;;61.08;34.40;;;16.10;99.90;;;;;;6319734;22;19995;-94
2023/05/11 10:22:26;;;;;;;63.60;36.75;;;16.10;99.90;;;;;;6293531;22;20002;-95
2023/05/11 10:24:53;;;;;;;55.80;33.28;;;16.10;99.90;;;;;;6347484;22;20003;-96
2023/05/11 10:27:20;;;;;;;57.97;32.08;;;16.20;99.90;;;;;;6321338;22;20022;-96
2023/05/11 10:29:47;;;;;;;69.72;35.17;;;16.20;99.90;;;;;;6294705;22;20079;-92
2023/05/11 10:32:15;;;;;;;65.22;36.00;;;16.10;99.90;;;;;;6288553;22;20010;-92
2023/05/11 10:34:42;;;;;;;62.20;36.28;;;16.20;99.90;;;;;;6313851;22;19999;-92
2023/05/11 10:37:08;;;;;;;57.85;35.28;;;16.20;99.90;;;;;;6314286;22;19999;-91
2023/05/11 10:39:38;;;;;;;64.95;38.35;;;16.20;99.90;;;;;;6288422;22;20011;-92
2023/05/11 10:42:13;;;;;;;60.50;37.10;;;16.20;99.90;;;;;;6314534;22;20414;-92
2023/05/11 10:45:12;;;;;;;73.07;39.75;;;16.10;99.90;;;;;;6314042;22;20003;-91
2023/05/11 10:48:09;;;;;;;64.28;36.92;;;16.20;99.90;;;;;;6316197;22;20006;-94
2023/05/11 10:50:41;;;;;;;73.47;42.75;;;16.10;99.90;;;;;;6313353;22;20013;-93
2023/05/11 10:53:25;;;;;;;69.03;40.15;;;16.10;99.90;;;;;;6313453;22;20095;-92
2023/05/11 10:55:54;;;;;;;81.05;39.25;;;16.10;99.90;;;;;;6312981;22;20010;-92
2023/05/11 10:58:42;;;;;;;94.85;42.78;;;16.10;99.90;;;;;;6313487;22;19999;-93
2023/05/11 11:01:29;;;;;;;75.82;41.47;;;16.00;99.90;;;;;;6313620;22;20022;-94
2023/05/11 11:04:01;;;;;;;112.68;44.25;;;16.00;99.90;;;;;;6313605;22;19999;-94
2023/05/11 11:06:28;;;;;;;68.32;38.83;;;16.00;99.90;;;;;;6288247;22;20007;-93
2023/05/11 11:08:59;;;;;;;55.97;34.40;;;16.00;99.90;;;;;;6262459;22;20007;-93
2023/05/11 11:11:33;;;;;;;62.90;36.92;;;16.00;99.90;;;;;;6313549;22;19999;-93
2023/05/11 11:14:02;;;;;;;85.80;38.08;;;15.90;99.90;;;;;;6313764;22;20059;-93
2023/05/11 11:16:28;;;;;;;57.72;36.13;;;15.80;99.90;;;;;;6313167;22;20006;-94
2023/05/11 11:19:31;;;;;;;58.00;34.15;;;15.80;99.90;;;;;;6314000;22;19999;-94
2023/05/11 11:21:58;;;;;;;59.55;37.70;;;15.70;99.90;;;;;;6313222;22;20003;-93
2023/05/11 11:24:36;;;;;;;64.78;41.58;;;15.60;99.90;;;;;;6287696;22;20006;-93
2023/05/11 11:27:02;;;;;;;54.42;33.95;;;15.60;99.90;;;;;;6313989;22;20010;-93
2023/05/11 11:29:29;;;;;;;59.05;35.55;;;15.40;99.90;;;;;;6262785;22;20399;-93
2023/05/11 11:31:55;;;;;;;43.25;25.58;;;15.40;99.90;;;;;;6313779;22;20030;-94
2023/05/11 11:34:24;;;;;;;42.45;21.45;;;15.30;99.90;;;;;;6287972;22;20014;-91
2023/05/11 11:36:59;;;;;;;41.75;21.58;;;15.20;99.90;;;;;;6314411;22;20002;-92
2023/05/11 11:39:26;;;;;;;30.95;18.90;;;15.20;99.90;;;;;;6314308;22;19999;-92
2023/05/11 11:42:01;;;;;;;46.42;21.75;;;15.20;99.90;;;;;;6288323;22;20009;-92
2023/05/11 11:44:27;;;;;;;55.28;25.63;;;15.30;99.90;;;;;;6288252;22;19999;-94
2023/05/11 11:47:16;;;;;;;68.22;26.30;;;15.30;99.90;;;;;;6288649;22;20094;-93
2023/05/11 11:49:46;;;;;;;58.90;28.58;;;15.30;99.90;;;;;;6314229;22;20003;-93
2023/05/11 11:52:27;;;;;;;63.75;34.75;;;15.30;99.90;;;;;;6314858;22;20005;-96
2023/05/11 11:55:00;;;;;;;;;;;15.30;99.90;;;;;;6320963;22;20063;-96
2023/05/11 11:57:28;;;;;;;70.50;33.17;;;15.40;99.90;;;;;;6317183;22;19999;-96
2023/05/11 11:59:55;;;;;;;100.30;34.55;;;15.40;99.90;;;;;;6317417;22;19999;-95
2023/05/11 12:02:22;;;;;;;60.63;31.20;;;15.40;99.90;;;;;;6292996;22;20010;-96
2023/05/11 12:05:08;;;;;;;51.35;26.67;;;15.40;99.90;;;;;;6318874;22;20436;-95
2023/05/11 12:07:38;;;;;;;78.65;31.40;;;15.40;99.90;;;;;;6323341;22;20029;-96
2023/05/11 12:10:04;;;;;;;59.97;29.98;;;15.40;99.90;;;;;;6318143;22;20002;-93
2023/05/11 12:12:30;;;;;;;46.58;27.80;;;15.50;99.90;;;;;;6289547;22;20007;-94
2023/05/11 12:14:56;;;;;;;49.42;26.23;;;15.50;99.90;;;;;;6316143;22;19999;-94
2023/05/11 12:17:28;;;;;;;52.45;26.50;;;15.50;99.90;;;;;;6291077;22;20003;-94
2023/05/11 12:19:55;;;;;;;44.10;24.92;;;15.60;99.90;;;;;;6317935;22;20003;-93
2023/05/11 12:22:22;;;;;;;45.45;25.30;;;15.60;99.90;;;;;;6319937;22;19998;-93
2023/05/11 12:24:48;;;;;;;35.10;21.63;;;15.70;99.90;;;;;;6295477;22;20010;-94
2023/05/11 12:27:17;;;;;;;46.05;23.77;;;15.70;99.90;;;;;;6294168;22;20003;-94
2023/05/11 12:29:50;;;;;;;37.67;23.27;;;15.80;99.90;;;;;;6321569;22;20002;-93
2023/05/11 12:32:28;;;;;;;40.35;23.33;;;15.80;99.90;;;;;;6337867;22;19983;-90
2023/05/11 12:35:03;;;;;;;55.00;26.50;;;15.90;99.90;;;;;;6312972;22;19991;-92
2023/05/11 12:37:32;;;;;;;43.53;23.65;;;15.90;99.90;;;;;;6339687;22;20038;-90
2023/05/11 12:39:58;;;;;;;45.58;27.17;;;16.00;99.90;;;;;;6341900;22;20003;-91
2023/05/11 12:42:25;;;;;;;42.28;24.33;;;16.00;99.90;;;;;;6312929;22;19995;-95